createdAt,value
2022-12-27T00:00:51.939Z,18.35
2022-12-27T00:03:22.064Z,20.65
2022-12-27T00:05:51.763Z,18.13
2022-12-27T00:08:21.541Z,29.77
2022-12-27T00:10:51.317Z,28.52
2022-12-27T00:13:20.867Z,28.27
2022-12-27T00:15:50.459Z,26.65
2022-12-27T00:18:20.088Z,38.25
2022-12-27T00:20:49.750Z,30.67
2022-12-27T00:23:19.410Z,28.30
2022-12-27T00:25:49.160Z,23.73
2022-12-27T00:28:19.440Z,28.33
2022-12-27T00:30:55.896Z,29.10
2022-12-27T00:33:25.629Z,39.78
2022-12-27T00:35:55.540Z,35.25
2022-12-27T00:38:26.110Z,35.08
2022-12-27T00:40:56.076Z,32.53
2022-12-27T00:43:25.641Z,33.88
2022-12-27T00:45:55.653Z,53.15
2022-12-27T00:48:25.694Z,40.35
2022-12-27T00:51:04.611Z,36.40
2022-12-27T00:53:35.753Z,40.38
2022-12-27T00:56:13.686Z,46.30
2022-12-27T00:58:43.282Z,39.42
2022-12-27T01:01:21.891Z,33.63
2022-12-27T01:03:51.917Z,40.60
2022-12-27T01:06:24.712Z,30.90
2022-12-27T01:08:54.410Z,29.92
2022-12-27T01:11:24.432Z,26.17
2022-12-27T01:13:54.093Z,29.40
2022-12-27T01:16:25.643Z,30.75
2022-12-27T01:18:55.637Z,30.88
2022-12-27T01:21:27.131Z,24.83
2022-12-27T01:23:56.990Z,22.27
2022-12-27T01:26:27.063Z,22.38
2022-12-27T01:28:57.004Z,25.90
2022-12-27T01:31:30.069Z,20.77
2022-12-27T01:34:01.714Z,22.02
2022-12-27T01:36:33.190Z,26.65
2022-12-27T01:39:04.135Z,24.90
2022-12-27T01:41:56.276Z,29.02
2022-12-27T01:44:53.609Z,24.20
2022-12-27T01:47:40.273Z,25.43
2022-12-27T01:50:23.347Z,22.73
2022-12-27T01:53:12.589Z,23.80
2022-12-27T01:56:03.264Z,30.48
2022-12-27T01:58:44.858Z,23.65
2022-12-27T02:01:24.964Z,20.17
2022-12-27T02:04:03.517Z,23.35
2022-12-27T02:06:34.504Z,19.70
2022-12-27T02:09:28.961Z,23.67
2022-12-27T02:12:00.050Z,26.30
2022-12-27T02:14:48.818Z,30.40
2022-12-27T02:17:32.108Z,24.40
2022-12-27T02:20:24.333Z,31.23
2022-12-27T02:23:45.086Z,29.70
2022-12-27T02:26:50.019Z,27.88
2022-12-27T02:29:44.409Z,27.75
2022-12-27T02:32:29.769Z,30.50
2022-12-27T02:35:16.660Z,22.35
2022-12-27T02:37:54.961Z,23.35
2022-12-27T02:43:35.122Z,26.92
2022-12-27T02:46:48.497Z,22.75
2022-12-27T02:49:58.580Z,24.50
2022-12-27T02:53:07.510Z,21.25
2022-12-27T02:56:35.911Z,19.33
2022-12-27T02:59:38.384Z,15.15
2022-12-27T03:02:52.740Z,20.00
2022-12-27T03:06:16.091Z,19.08
2022-12-27T03:09:11.960Z,16.25
2022-12-27T03:12:12.632Z,24.60
2022-12-27T03:15:08.467Z,15.98
2022-12-27T03:17:46.144Z,14.18
2022-12-27T03:20:41.131Z,13.07
2022-12-27T03:23:31.900Z,11.82
2022-12-27T03:26:05.188Z,17.77
2022-12-27T03:28:56.083Z,17.30
2022-12-27T03:31:55.809Z,14.75
2022-12-27T03:34:41.684Z,15.07
2022-12-27T03:37:39.448Z,20.45
2022-12-27T03:40:36.356Z,24.33
2022-12-27T03:43:17.505Z,15.45
2022-12-27T03:46:35.809Z,14.48
2022-12-27T03:49:37.599Z,16.98
2022-12-27T03:52:28.501Z,15.13
2022-12-27T03:54:59.640Z,9.70
2022-12-27T03:57:30.054Z,15.25
2022-12-27T03:59:59.727Z,12.57
2022-12-27T04:02:29.484Z,15.68
2022-12-27T04:04:59.195Z,14.65
2022-12-27T04:07:28.847Z,12.85
2022-12-27T04:10:18.010Z,12.05
2022-12-27T04:13:07.297Z,11.80
2022-12-27T04:15:56.637Z,12.75
2022-12-27T04:18:45.845Z,11.98
2022-12-27T04:21:35.018Z,12.20
2022-12-27T04:24:24.259Z,10.63
2022-12-27T04:27:13.509Z,17.60
2022-12-27T04:30:02.659Z,8.23
2022-12-27T04:32:51.860Z,10.95
2022-12-27T04:35:21.488Z,12.63
2022-12-27T04:37:51.104Z,13.85
2022-12-27T04:40:40.465Z,11.68
2022-12-27T04:43:31.481Z,10.77
2022-12-27T04:46:20.822Z,16.08
2022-12-27T04:49:10.006Z,11.10
2022-12-27T04:51:59.391Z,12.10
2022-12-27T04:54:48.506Z,15.68
2022-12-27T04:57:18.039Z,10.50
2022-12-27T05:00:07.135Z,11.25
2022-12-27T05:02:36.926Z,14.90
2022-12-27T05:05:06.910Z,12.85
2022-12-27T05:07:56.118Z,13.80
2022-12-27T05:10:45.402Z,15.75
2022-12-27T05:13:35.410Z,13.18
2022-12-27T05:16:05.073Z,15.23
2022-12-27T05:18:34.621Z,10.70
2022-12-27T05:21:06.379Z,11.73
2022-12-27T05:24:04.883Z,10.93
2022-12-27T05:26:36.112Z,9.95
2022-12-27T05:29:06.054Z,13.52
2022-12-27T05:31:36.144Z,10.48
2022-12-27T05:34:06.779Z,12.30
2022-12-27T05:36:36.571Z,11.80
2022-12-27T05:39:06.217Z,11.77
2022-12-27T05:41:35.775Z,12.05
2022-12-27T05:44:07.628Z,11.30
2022-12-27T05:46:37.748Z,12.32
2022-12-27T05:49:07.451Z,13.10
2022-12-27T05:51:37.099Z,15.27
2022-12-27T05:54:07.023Z,12.40
2022-12-27T05:56:38.902Z,14.02
2022-12-27T05:59:09.728Z,11.15
2022-12-27T06:01:39.351Z,13.23
2022-12-27T06:04:08.864Z,9.82
2022-12-27T06:06:38.517Z,18.45
2022-12-27T06:09:08.030Z,19.58
2022-12-27T06:11:37.553Z,10.50
2022-12-27T06:14:07.137Z,19.48
2022-12-27T06:16:36.801Z,12.85
2022-12-27T06:19:06.450Z,14.00
2022-12-27T06:21:36.143Z,14.80
2022-12-27T06:24:05.853Z,12.32
2022-12-27T06:26:36.033Z,10.77
2022-12-27T06:29:05.710Z,11.23
2022-12-27T06:31:35.343Z,11.20
2022-12-27T06:34:04.959Z,10.55
2022-12-27T06:36:34.694Z,11.05
2022-12-27T06:39:04.419Z,9.57
2022-12-27T06:41:34.093Z,11.00
2022-12-27T06:44:03.790Z,14.65
2022-12-27T06:46:34.245Z,15.63
2022-12-27T06:49:04.105Z,10.45
2022-12-27T06:51:33.754Z,12.82
2022-12-27T06:54:03.387Z,11.77
2022-12-27T06:56:33.004Z,10.60
2022-12-27T06:59:02.871Z,11.77
2022-12-27T07:01:32.539Z,10.02
2022-12-27T07:04:03.315Z,11.55
2022-12-27T07:06:34.462Z,10.05
2022-12-27T07:09:04.064Z,9.50
2022-12-27T07:11:36.219Z,13.82
2022-12-27T07:14:07.191Z,11.80
2022-12-27T07:16:37.094Z,10.65
2022-12-27T07:19:06.891Z,12.98
2022-12-27T07:21:36.400Z,10.57
2022-12-27T07:24:06.224Z,8.43
2022-12-27T07:26:35.701Z,10.38
2022-12-27T07:29:05.306Z,8.60
2022-12-27T07:31:35.582Z,11.43
2022-12-27T07:34:05.965Z,12.63
2022-12-27T07:36:41.499Z,9.15
2022-12-27T07:39:11.408Z,10.20
2022-12-27T07:41:40.992Z,11.10
2022-12-27T07:44:11.481Z,8.75
2022-12-27T07:46:42.001Z,7.82
2022-12-27T07:49:17.555Z,9.43
2022-12-27T07:51:47.796Z,7.97
2022-12-27T07:54:17.376Z,20.63
2022-12-27T07:56:47.045Z,9.38
2022-12-27T07:59:17.025Z,8.60
2022-12-27T08:02:06.556Z,9.68
2022-12-27T08:04:39.874Z,10.23
2022-12-27T08:07:19.372Z,9.45
2022-12-27T08:09:50.295Z,9.38
2022-12-27T08:12:19.836Z,8.93
2022-12-27T08:14:49.563Z,9.23
2022-12-27T08:17:23.642Z,12.30
2022-12-27T08:19:57.437Z,8.68
2022-12-27T08:22:27.076Z,7.00
2022-12-27T08:24:57.880Z,9.00
2022-12-27T08:27:27.982Z,6.95
2022-12-27T08:29:57.548Z,8.05
2022-12-27T08:32:27.247Z,7.10
2022-12-27T08:35:07.036Z,7.50
2022-12-27T08:37:46.493Z,11.77
2022-12-27T08:40:16.063Z,14.00
2022-12-27T08:42:45.628Z,8.57
2022-12-27T08:45:15.858Z,5.50
2022-12-27T08:47:46.157Z,10.02
2022-12-27T08:50:15.642Z,9.55
2022-12-27T08:52:45.144Z,6.80
2022-12-27T08:55:14.763Z,9.82
2022-12-27T08:57:44.310Z,9.70
2022-12-27T09:00:14.553Z,10.25
2022-12-27T09:02:44.371Z,8.68
2022-12-27T09:05:13.955Z,9.27
2022-12-27T09:07:43.448Z,7.90
2022-12-27T09:10:13.030Z,7.05
2022-12-27T09:12:42.623Z,8.07
2022-12-27T09:15:12.504Z,8.27
2022-12-27T09:17:42.855Z,7.70
2022-12-27T09:20:14.015Z,8.10
2022-12-27T09:22:43.770Z,9.98
2022-12-27T09:25:13.530Z,9.18
2022-12-27T09:27:43.135Z,10.18
2022-12-27T09:30:13.220Z,7.75
2022-12-27T09:32:42.735Z,9.75
2022-12-27T09:35:12.443Z,10.73
2022-12-27T09:37:42.127Z,8.85
2022-12-27T09:40:16.777Z,12.00
2022-12-27T09:43:22.357Z,10.98
2022-12-27T09:45:59.125Z,11.18
2022-12-27T09:48:39.134Z,9.82
2022-12-27T09:51:23.150Z,6.57
2022-12-27T09:54:16.921Z,7.40
2022-12-27T09:57:18.283Z,8.80
2022-12-27T09:59:40.674Z,9.43
2022-12-27T10:02:30.901Z,10.35
2022-12-27T10:05:19.867Z,8.80
2022-12-27T10:08:16.985Z,9.60
2022-12-27T10:11:31.629Z,8.40
2022-12-27T10:14:23.939Z,9.15
2022-12-27T10:17:13.714Z,8.05
2022-12-27T10:19:55.422Z,8.57
2022-12-27T10:22:44.961Z,9.18
2022-12-27T10:25:16.785Z,13.10
2022-12-27T10:27:48.822Z,8.68
2022-12-27T10:30:21.582Z,12.00
2022-12-27T10:32:51.746Z,16.38
2022-12-27T10:35:23.215Z,11.65
2022-12-27T10:37:55.260Z,15.57
2022-12-27T10:40:39.953Z,11.88
2022-12-27T10:43:37.317Z,16.35
2022-12-27T10:46:33.906Z,15.90
2022-12-27T10:49:20.692Z,15.90
2022-12-27T10:51:52.354Z,17.35
2022-12-27T10:54:33.086Z,18.02
2022-12-27T10:57:30.511Z,16.17
2022-12-27T11:00:23.935Z,17.63
2022-12-27T11:02:58.668Z,28.17
2022-12-27T11:05:32.156Z,21.98
2022-12-27T11:08:05.117Z,21.58
2022-12-27T11:10:34.725Z,21.38
2022-12-27T11:13:19.750Z,16.38
2022-12-27T11:15:59.270Z,19.15
2022-12-27T11:18:29.096Z,15.10
2022-12-27T11:21:01.090Z,12.95
2022-12-27T11:23:44.824Z,13.55
2022-12-27T11:26:23.044Z,16.98
2022-12-27T11:29:00.779Z,17.85
2022-12-27T11:31:43.602Z,20.35
2022-12-27T11:34:34.195Z,22.42
2022-12-27T11:37:18.604Z,17.52
2022-12-27T11:39:57.489Z,15.90
2022-12-27T11:42:49.741Z,18.92
2022-12-27T11:45:29.342Z,16.63
2022-12-27T11:48:21.814Z,17.52
2022-12-27T11:51:32.017Z,17.67
2022-12-27T11:54:37.251Z,14.38
2022-12-27T11:57:46.008Z,19.38
2022-12-27T12:00:24.045Z,19.45
2022-12-27T12:06:21.504Z,19.17
2022-12-27T12:09:30.306Z,33.08
2022-12-27T12:12:27.503Z,23.35
2022-12-27T12:15:36.327Z,23.17
2022-12-27T12:18:33.219Z,31.70
2022-12-27T12:21:28.463Z,41.60
2022-12-27T12:24:37.199Z,29.40
2022-12-27T12:27:38.688Z,34.30
2022-12-27T12:30:47.678Z,32.08
2022-12-27T12:33:56.465Z,35.33
2022-12-27T12:36:55.692Z,36.58
2022-12-27T12:40:00.668Z,38.25
2022-12-27T12:42:57.257Z,35.15
2022-12-27T12:46:07.004Z,38.78
2022-12-27T12:49:15.756Z,34.97
2022-12-27T12:52:17.687Z,36.08
2022-12-27T12:55:12.551Z,31.00
2022-12-27T12:58:07.535Z,32.15
2022-12-27T13:01:06.706Z,25.50
2022-12-27T13:04:15.580Z,34.40
2022-12-27T13:07:24.577Z,46.22
2022-12-27T13:10:33.400Z,25.15
2022-12-27T13:13:42.091Z,27.80
2022-12-27T13:16:27.619Z,22.20
2022-12-27T13:19:36.438Z,24.48
2022-12-27T13:22:39.641Z,25.85
2022-12-27T13:25:48.323Z,23.20
2022-12-27T13:28:57.059Z,26.67
2022-12-27T13:32:05.723Z,25.35
2022-12-27T13:34:45.751Z,37.28
2022-12-27T13:37:42.383Z,27.20
2022-12-27T13:40:51.191Z,23.05
2022-12-27T13:43:59.859Z,22.65
2022-12-27T13:47:08.610Z,27.05
2022-12-27T13:50:15.320Z,29.60
2022-12-27T13:53:16.031Z,32.50
2022-12-27T13:56:20.449Z,31.17
2022-12-27T13:59:31.305Z,21.27
2022-12-27T14:02:40.211Z,24.55
2022-12-27T14:05:46.306Z,22.45
2022-12-27T14:08:35.278Z,31.25
2022-12-27T14:11:16.655Z,25.90
2022-12-27T14:13:46.497Z,24.35
2022-12-27T14:16:40.195Z,27.92
2022-12-27T14:19:48.869Z,20.77
2022-12-27T14:22:53.971Z,24.13
2022-12-27T14:25:53.563Z,24.33
2022-12-27T14:29:00.167Z,22.27
2022-12-27T14:32:04.656Z,30.77
2022-12-27T14:35:13.406Z,35.67
2022-12-27T14:38:22.119Z,38.40
2022-12-27T14:41:30.889Z,37.92
2022-12-27T14:44:28.152Z,29.42
2022-12-27T14:47:36.887Z,34.05
2022-12-27T14:50:45.553Z,30.63
2022-12-27T14:53:53.170Z,32.15
2022-12-27T14:57:02.028Z,29.38
2022-12-27T15:00:03.761Z,34.03
2022-12-27T15:03:12.520Z,28.75
2022-12-27T15:06:20.244Z,27.08
2022-12-27T15:09:05.422Z,28.42
2022-12-27T15:12:06.910Z,26.80
2022-12-27T15:15:01.764Z,32.05
2022-12-27T15:17:52.784Z,27.75
2022-12-27T15:21:01.544Z,28.73
2022-12-27T15:23:44.667Z,25.08
2022-12-27T15:26:42.516Z,29.35
2022-12-27T15:29:29.971Z,25.17
2022-12-27T15:32:38.633Z,38.83
2022-12-27T15:35:40.391Z,36.88
2022-12-27T15:38:53.997Z,29.38
2022-12-27T15:41:46.705Z,30.73
2022-12-27T15:44:48.369Z,39.55
2022-12-27T15:47:57.095Z,33.40
2022-12-27T15:50:46.372Z,22.33
2022-12-27T15:53:39.205Z,24.70
2022-12-27T15:56:38.284Z,29.55
2022-12-27T15:59:43.110Z,30.63
2022-12-27T16:02:40.170Z,23.92
2022-12-27T16:05:49.129Z,27.33
2022-12-27T16:08:28.286Z,22.10
2022-12-27T16:10:59.528Z,23.55
2022-12-27T16:13:42.915Z,22.88
2022-12-27T16:16:36.595Z,27.48
2022-12-27T16:19:40.371Z,28.13
2022-12-27T16:22:41.773Z,23.52
2022-12-27T16:25:35.121Z,28.00
2022-12-27T16:28:21.275Z,25.85
2022-12-27T16:30:57.868Z,33.58
2022-12-27T16:33:39.156Z,35.88
2022-12-27T16:36:29.994Z,34.45
2022-12-27T16:39:25.840Z,35.45
2022-12-27T16:42:08.499Z,50.17
2022-12-27T16:45:17.200Z,30.75
2022-12-27T16:48:09.044Z,25.98
2022-12-27T16:50:49.230Z,30.83
2022-12-27T16:53:42.996Z,29.17
2022-12-27T16:56:23.393Z,38.95
2022-12-27T16:58:53.700Z,38.25
2022-12-27T17:01:51.869Z,39.63
2022-12-27T17:05:02.000Z,40.78
2022-12-27T17:07:58.195Z,37.75
2022-12-27T17:10:45.825Z,31.98
2022-12-27T17:13:54.601Z,33.78
2022-12-27T17:16:27.588Z,39.47
2022-12-27T17:19:09.754Z,32.58
2022-12-27T17:21:41.417Z,32.97
2022-12-27T17:24:20.764Z,36.85
2022-12-27T17:27:25.635Z,38.90
2022-12-27T17:30:27.211Z,37.40
2022-12-27T17:33:29.125Z,38.05
2022-12-27T17:36:17.071Z,32.83
2022-12-27T17:39:21.203Z,36.20
2022-12-27T17:42:33.558Z,40.95
2022-12-27T17:45:35.611Z,37.78
2022-12-27T17:48:27.809Z,42.95
2022-12-27T17:51:13.475Z,34.25
2022-12-27T17:54:14.638Z,27.50
2022-12-27T17:57:09.868Z,28.65
2022-12-27T17:59:46.384Z,30.92
2022-12-27T18:02:26.942Z,27.95
2022-12-27T18:04:59.414Z,32.08
2022-12-27T18:07:31.637Z,28.75
2022-12-27T18:10:05.873Z,27.40
2022-12-27T18:12:44.033Z,31.27
2022-12-27T18:15:24.654Z,28.33
2022-12-27T18:18:00.829Z,27.77
2022-12-27T18:20:37.458Z,28.70
2022-12-27T18:23:18.528Z,31.67
2022-12-27T18:25:54.624Z,26.67
2022-12-27T18:28:32.867Z,24.67
2022-12-27T18:31:34.230Z,24.70
2022-12-27T18:34:09.374Z,24.73
2022-12-27T18:36:49.453Z,28.13
2022-12-27T18:39:42.065Z,26.08
2022-12-27T18:42:41.517Z,33.13
2022-12-27T18:45:22.502Z,24.83
2022-12-27T18:47:55.393Z,22.95
2022-12-27T18:50:28.530Z,27.25
2022-12-27T18:53:25.299Z,25.13
2022-12-27T18:56:24.732Z,21.70
2022-12-27T18:59:03.487Z,27.38
2022-12-27T19:01:43.099Z,19.63
2022-12-27T19:04:24.720Z,19.45
2022-12-27T19:07:14.647Z,26.55
2022-12-27T19:09:51.571Z,21.75
2022-12-27T19:12:41.259Z,24.83
2022-12-27T19:15:26.512Z,25.92
2022-12-27T19:18:01.615Z,20.80
2022-12-27T19:20:37.580Z,23.85
2022-12-27T19:23:26.659Z,22.65
2022-12-27T19:26:26.068Z,22.45
2022-12-27T19:29:08.130Z,22.25
2022-12-27T19:31:39.921Z,23.13
2022-12-27T19:34:15.650Z,21.08
2022-12-27T19:36:47.445Z,25.38
2022-12-27T19:39:24.372Z,22.70
2022-12-27T19:42:01.055Z,24.55
2022-12-27T19:44:31.571Z,22.42
2022-12-27T19:47:01.561Z,23.20
2022-12-27T19:49:42.565Z,28.15
2022-12-27T19:52:25.714Z,31.00
2022-12-27T19:55:04.017Z,28.75
2022-12-27T20:00:08.467Z,24.77
2022-12-27T20:02:42.061Z,21.25
2022-12-27T20:05:12.791Z,23.27
2022-12-27T20:07:42.748Z,24.48
2022-12-27T20:10:16.866Z,19.52
2022-12-27T20:12:46.392Z,23.58
2022-12-27T20:15:15.960Z,18.60
2022-12-27T20:17:45.496Z,19.60
2022-12-27T20:20:15.234Z,23.25
2022-12-27T20:22:44.886Z,21.30
2022-12-27T20:25:14.941Z,26.40
2022-12-27T20:27:46.307Z,24.90
2022-12-27T20:30:16.287Z,20.30
2022-12-27T20:32:45.754Z,17.50
2022-12-27T20:35:15.389Z,22.15
2022-12-27T20:37:45.129Z,20.63
2022-12-27T20:40:14.803Z,22.38
2022-12-27T20:42:44.440Z,18.65
2022-12-27T20:45:14.160Z,20.25
2022-12-27T20:47:43.994Z,18.67
2022-12-27T20:50:13.627Z,17.23
2022-12-27T20:52:43.160Z,22.85
2022-12-27T20:55:14.597Z,21.02
2022-12-27T20:57:44.297Z,22.08
2022-12-27T21:00:16.779Z,23.85
2022-12-27T21:02:46.826Z,22.48
2022-12-27T21:05:19.000Z,17.20
2022-12-27T21:07:48.615Z,17.35
2022-12-27T21:10:18.328Z,18.85
2022-12-27T21:12:47.913Z,20.80
2022-12-27T21:15:17.669Z,17.80
2022-12-27T21:17:47.245Z,17.92
2022-12-27T21:20:16.920Z,20.63
2022-12-27T21:22:46.526Z,18.23
2022-12-27T21:25:16.175Z,24.08
2022-12-27T21:27:45.719Z,19.55
2022-12-27T21:30:15.816Z,24.67
2022-12-27T21:32:45.473Z,20.42
2022-12-27T21:35:15.175Z,19.02
2022-12-27T21:37:44.922Z,21.27
2022-12-27T21:40:14.829Z,18.10
2022-12-27T21:42:44.552Z,18.45
2022-12-27T21:45:14.184Z,18.90
2022-12-27T21:47:43.761Z,18.08
2022-12-27T21:50:13.425Z,17.77
2022-12-27T21:52:43.026Z,19.00
2022-12-27T21:55:12.854Z,16.50
2022-12-27T21:57:42.400Z,16.25
2022-12-27T22:00:12.915Z,16.77
2022-12-27T22:02:43.121Z,19.00
2022-12-27T22:05:13.046Z,17.67
2022-12-27T22:07:42.619Z,20.42
2022-12-27T22:10:12.441Z,18.05
2022-12-27T22:12:41.941Z,15.75
2022-12-27T22:15:11.971Z,21.02
2022-12-27T22:17:41.504Z,17.13
2022-12-27T22:20:11.660Z,20.80
2022-12-27T22:22:41.226Z,21.13
2022-12-27T22:25:11.536Z,19.42
2022-12-27T22:27:41.195Z,17.50
2022-12-27T22:30:11.115Z,17.27
2022-12-27T22:32:40.653Z,22.23
2022-12-27T22:35:10.622Z,17.75
2022-12-27T22:37:40.229Z,16.35
2022-12-27T22:40:37.896Z,23.20
2022-12-27T22:42:59.770Z,32.20
2022-12-27T22:45:29.338Z,41.10
2022-12-27T22:47:59.361Z,29.48
2022-12-27T22:50:28.945Z,22.75
2022-12-27T22:52:58.387Z,21.75
2022-12-27T22:55:28.022Z,28.20
2022-12-27T22:57:57.569Z,29.58
2022-12-27T23:00:27.160Z,28.83
2022-12-27T23:02:57.476Z,22.45
2022-12-27T23:05:28.446Z,21.10
2022-12-27T23:08:04.220Z,18.27
2022-12-27T23:13:06.104Z,24.80
2022-12-27T23:15:35.667Z,26.02
2022-12-27T23:18:05.316Z,21.38
2022-12-27T23:20:36.805Z,22.90
2022-12-27T23:23:06.323Z,27.77
2022-12-27T23:25:38.522Z,35.17
2022-12-27T23:28:08.055Z,23.65
2022-12-27T23:30:37.616Z,22.88
2022-12-27T23:33:07.276Z,27.02
2022-12-27T23:35:36.911Z,34.30
2022-12-27T23:38:07.307Z,34.53
2022-12-27T23:40:36.812Z,45.10
2022-12-27T23:43:33.271Z,31.33
2022-12-27T23:45:55.930Z,26.40
2022-12-27T23:48:25.502Z,23.92
2022-12-27T23:50:55.064Z,20.90
2022-12-27T23:53:24.761Z,21.35
2022-12-27T23:56:18.160Z,20.15
2022-12-27T23:58:48.197Z,25.38
